Time;durP1;ratioP1;P1;durP2;ratioP2;P2;SDS_P1;SDS_P2;PMS_P1;PMS_P2;Temp;Humidity;BMP_temperature;BMP_pressure;BME280_temperature;BME280_humidity;BME280_pressure;Samples;Min_cycle;Max_cycle;Signal;HPM_P1;HPM_P2
2023/01/31 00:01:25;;;;;;;17.00;6.20;;;3.60;99.90;;;;;;4961662;28;90272;-34
2023/01/31 00:03:55;;;;;;;24.13;6.35;;;3.60;99.90;;;;;;4960936;28;89318;-32
2023/01/31 00:06:31;;;;;;;24.73;6.53;;;3.60;99.90;;;;;;4961515;28;90511;-33
2023/01/31 00:08:58;;;;;;;18.25;5.72;;;3.60;99.90;;;;;;4950069;28;88514;-32
2023/01/31 00:11:26;;;;;;;18.60;4.60;;;3.60;99.90;;;;;;4962016;28;90171;-33
2023/01/31 00:13:52;;;;;;;13.57;4.57;;;3.60;99.90;;;;;;4960500;28;91238;-32
2023/01/31 00:16:19;;;;;;;18.83;5.43;;;3.50;99.90;;;;;;4960427;28;90124;-34
2023/01/31 00:18:46;;;;;;;15.70;5.22;;;3.50;99.90;;;;;;4960686;28;88107;-32
2023/01/31 00:21:17;;;;;;;21.00;4.85;;;3.50;99.90;;;;;;4960860;28;90088;-32
2023/01/31 00:23:44;;;;;;;17.10;4.78;;;3.30;99.90;;;;;;4961629;28;90802;-33
2023/01/31 00:26:15;;;;;;;24.17;5.15;;;3.50;99.90;;;;;;4960822;28;89067;-31
2023/01/31 00:28:43;;;;;;;16.52;5.03;;;3.30;99.90;;;;;;4961189;28;89366;-32
2023/01/31 00:31:09;;;;;;;21.05;4.85;;;3.30;99.90;;;;;;4943550;28;90233;-34
2023/01/31 00:33:36;;;;;;;15.02;4.63;;;3.20;99.90;;;;;;4943625;28;89642;-32
2023/01/31 00:36:07;;;;;;;14.48;5.03;;;3.20;99.90;;;;;;4961501;28;89793;-33
2023/01/31 00:38:33;;;;;;;12.57;3.35;;;3.20;99.90;;;;;;4960407;28;90218;-32
2023/01/31 00:40:58;;;;;;;13.77;5.10;;;3.20;99.90;;;;;;4961022;28;89574;-31
2023/01/31 00:43:24;;;;;;;19.92;5.55;;;3.20;99.90;;;;;;4960235;28;89941;-31
2023/01/31 00:45:49;;;;;;;14.15;4.97;;;3.20;99.90;;;;;;4961118;28;89015;-32
2023/01/31 00:48:15;;;;;;;20.20;5.32;;;3.20;99.90;;;;;;4960633;28;89766;-31
2023/01/31 00:50:41;;;;;;;22.00;6.25;;;3.10;99.90;;;;;;4960156;28;90498;-34
2023/01/31 00:53:06;;;;;;;16.13;4.18;;;3.00;99.90;;;;;;4959987;28;89652;-32
2023/01/31 00:55:32;;;;;;;19.15;5.68;;;3.00;99.90;;;;;;4960030;28;89446;-35
2023/01/31 00:57:58;;;;;;;15.27;4.50;;;2.90;99.90;;;;;;4961400;28;88696;-33
2023/01/31 01:00:23;;;;;;;21.77;6.00;;;3.00;99.90;;;;;;4960013;28;90022;-30
2023/01/31 01:02:49;;;;;;;23.48;4.85;;;3.00;99.90;;;;;;4960542;28;89439;-31
2023/01/31 01:05:14;;;;;;;16.10;5.00;;;2.90;99.90;;;;;;4959985;28;91221;-32
2023/01/31 01:07:41;;;;;;;15.27;4.60;;;2.90;99.90;;;;;;4960836;28;89579;-34
2023/01/31 01:10:07;;;;;;;17.45;4.82;;;2.90;99.90;;;;;;4960231;28;90636;-32
2023/01/31 01:12:33;;;;;;;18.23;4.65;;;2.90;99.90;;;;;;4960356;28;89409;-32
2023/01/31 01:14:58;;;;;;;20.98;5.47;;;2.80;99.90;;;;;;4960049;28;89384;-31
2023/01/31 01:17:24;;;;;;;19.45;4.95;;;2.80;99.90;;;;;;4960735;28;89338;-32
2023/01/31 01:19:49;;;;;;;28.98;4.95;;;2.70;99.90;;;;;;4960132;28;91520;-34
2023/01/31 01:22:15;;;;;;;24.35;5.15;;;2.70;99.90;;;;;;4960613;28;89944;-34
2023/01/31 01:24:42;;;;;;;16.10;4.30;;;2.70;99.90;;;;;;4959309;28;89822;-34
2023/01/31 01:27:08;;;;;;;14.07;5.72;;;2.70;99.90;;;;;;4960161;28;90272;-33
2023/01/31 01:29:34;;;;;;;12.80;4.72;;;2.70;99.90;;;;;;4960074;28;92045;-32
2023/01/31 01:32:00;;;;;;;16.60;4.63;;;2.70;99.90;;;;;;4959899;28;89462;-32
2023/01/31 01:34:25;;;;;;;26.35;5.25;;;2.70;99.90;;;;;;4960690;28;89615;-32
2023/01/31 01:36:51;;;;;;;24.40;6.30;;;2.70;99.90;;;;;;4959624;28;89738;-32
2023/01/31 01:39:17;;;;;;;17.95;4.88;;;2.60;99.90;;;;;;4960321;28;90095;-32
2023/01/31 01:41:44;;;;;;;11.07;5.00;;;2.60;99.90;;;;;;4959707;28;89431;-32
2023/01/31 01:44:48;;;;;;;24.70;5.03;;;2.70;99.90;;;;;;4959979;28;88531;-31
2023/01/31 01:47:49;;;;;;;12.77;4.38;;;2.60;99.90;;;;;;4960556;28;90264;-34
2023/01/31 01:50:34;;;;;;;11.43;4.05;;;2.70;99.90;;;;;;4958783;28;89167;-33
2023/01/31 01:53:16;;;;;;;16.95;4.53;;;2.70;99.90;;;;;;4959118;28;90759;-33
2023/01/31 01:55:54;;;;;;;21.27;5.43;;;2.70;99.90;;;;;;4958574;28;90493;-31
2023/01/31 01:58:30;;;;;;;9.80;3.80;;;2.70;99.90;;;;;;4959489;28;90097;-32
2023/01/31 02:00:56;;;;;;;13.25;4.22;;;2.60;99.90;;;;;;4960219;28;90850;-33
2023/01/31 02:03:22;;;;;;;13.77;3.53;;;2.60;99.90;;;;;;4959115;28;89620;-32
2023/01/31 02:05:54;;;;;;;18.80;3.85;;;2.60;99.90;;;;;;4959920;28;89169;-33
2023/01/31 02:08:22;;;;;;;14.38;4.18;;;2.60;99.90;;;;;;4959285;28;88819;-33
2023/01/31 02:10:50;;;;;;;;;;;2.70;99.90;;;;;;4960581;28;89748;-31
2023/01/31 02:13:19;;;;;;;14.10;3.22;;;2.70;99.90;;;;;;4960632;28;89809;-32
2023/01/31 02:15:45;;;;;;;9.43;4.38;;;2.70;99.90;;;;;;4959574;28;89416;-31
2023/01/31 02:18:11;;;;;;;11.95;4.72;;;2.70;99.90;;;;;;4958857;28;89455;-34
2023/01/31 02:21:04;;;;;;;13.13;4.63;;;2.70;99.90;;;;;;4959275;28;91144;-32
2023/01/31 02:23:42;;;;;;;9.23;3.45;;;2.70;99.90;;;;;;4959004;28;89277;-33
2023/01/31 02:26:45;;;;;;;9.50;4.15;;;2.60;99.90;;;;;;4959066;28;89605;-32
2023/01/31 02:29:38;;;;;;;15.55;4.20;;;2.60;99.90;;;;;;4959503;28;88871;-35
2023/01/31 02:33:01;;;;;;;11.02;4.22;;;2.60;99.90;;;;;;4959217;28;90126;-33
2023/01/31 02:35:38;;;;;;;11.23;3.72;;;2.70;99.90;;;;;;4891848;28;89784;-32
2023/01/31 02:38:06;;;;;;;7.53;2.93;;;2.70;99.90;;;;;;4898359;28;89732;-33
2023/01/31 02:41:02;;;;;;;14.15;3.72;;;2.70;99.90;;;;;;4928770;28;88829;-32
2023/01/31 02:43:33;;;;;;;23.00;4.30;;;2.80;99.90;;;;;;4959516;28;90295;-33
2023/01/31 02:46:18;;;;;;;17.75;4.35;;;2.80;99.90;;;;;;4946568;28;90687;-32
2023/01/31 02:48:50;;;;;;;10.57;3.40;;;2.80;99.90;;;;;;4958626;28;91969;-32
2023/01/31 02:51:27;;;;;;;14.52;3.53;;;2.80;99.90;;;;;;4959160;28;89353;-31
2023/01/31 02:54:09;;;;;;;11.20;4.53;;;2.90;99.90;;;;;;4958373;28;90203;-33
2023/01/31 02:56:38;;;;;;;15.82;5.15;;;2.90;99.90;;;;;;4959561;28;89313;-33
2023/01/31 02:59:20;;;;;;;12.65;4.50;;;2.90;99.90;;;;;;4959299;28;89622;-32
2023/01/31 03:01:49;;;;;;;8.40;3.55;;;2.90;99.90;;;;;;4958663;28;89485;-34
2023/01/31 03:04:15;;;;;;;20.30;5.47;;;2.90;99.90;;;;;;4959481;28;90256;-32
2023/01/31 03:07:09;;;;;;;17.75;4.32;;;3.00;99.90;;;;;;4958807;28;89699;-32
2023/01/31 03:09:40;;;;;;;13.18;3.70;;;3.00;99.90;;;;;;4958080;28;89276;-34
2023/01/31 03:12:56;;;;;;;13.23;4.80;;;2.90;99.90;;;;;;4946612;28;90578;-31
2023/01/31 03:18:31;;;;;;;9.95;3.33;;;2.90;99.90;;;;;;4958330;28;90128;-31
2023/01/31 03:21:04;;;;;;;12.93;4.38;;;2.90;99.90;;;;;;4957329;28;89525;-33
2023/01/31 03:23:33;;;;;;;12.02;4.45;;;3.00;99.90;;;;;;4959506;28;88821;-32
2023/01/31 03:26:02;;;;;;;16.75;4.18;;;3.00;99.90;;;;;;4957424;28;92050;-32
2023/01/31 03:28:31;;;;;;;11.65;4.68;;;3.00;99.90;;;;;;4958607;28;89208;-33
2023/01/31 03:31:18;;;;;;;9.35;3.88;;;3.10;99.90;;;;;;4958776;28;89667;-31
2023/01/31 03:33:48;;;;;;;9.30;4.07;;;3.00;99.90;;;;;;4957716;28;88441;-34
2023/01/31 03:36:28;;;;;;;19.83;4.05;;;3.10;99.90;;;;;;4961921;28;90318;-30
2023/01/31 03:39:32;;;;;;;11.18;3.10;;;3.20;99.90;;;;;;4960856;28;90647;-32
2023/01/31 03:42:06;;;;;;;8.70;4.28;;;3.20;99.90;;;;;;4943325;28;90044;-32
2023/01/31 03:44:41;;;;;;;20.40;3.85;;;3.10;99.90;;;;;;4961855;28;88250;-33
2023/01/31 03:47:22;;;;;;;18.55;4.47;;;3.10;99.90;;;;;;4961859;28;90752;-31
2023/01/31 03:49:50;;;;;;;14.63;4.40;;;3.20;99.90;;;;;;4960785;28;89727;-33
2023/01/31 03:52:22;;;;;;;10.38;3.92;;;3.20;99.90;;;;;;4961126;28;89590;-33
2023/01/31 03:54:57;;;;;;;19.65;5.35;;;3.20;99.90;;;;;;4961523;28;88460;-32
2023/01/31 03:57:29;;;;;;;9.95;4.38;;;3.20;99.90;;;;;;4949645;28;89258;-32
2023/01/31 03:59:58;;;;;;;23.40;4.78;;;3.20;99.90;;;;;;4960884;28;89369;-33
2023/01/31 04:02:32;;;;;;;12.95;4.70;;;3.20;99.90;;;;;;4961775;28;89758;-33
2023/01/31 04:05:09;;;;;;;20.05;4.43;;;3.20;99.90;;;;;;4961475;28;89416;-31
2023/01/31 04:07:36;;;;;;;11.32;4.68;;;3.30;99.90;;;;;;4960640;28;89921;-33
2023/01/31 04:10:06;;;;;;;25.92;5.18;;;3.30;99.90;;;;;;4961014;28;88697;-32
2023/01/31 04:12:36;;;;;;;14.80;4.03;;;3.30;99.90;;;;;;4961132;28;89356;-33
2023/01/31 04:15:02;;;;;;;11.95;4.45;;;3.30;99.90;;;;;;4961266;28;88551;-30
2023/01/31 04:17:28;;;;;;;10.27;4.97;;;3.40;99.90;;;;;;4961686;28;89575;-31
2023/01/31 04:19:54;;;;;;;20.77;3.78;;;3.40;99.90;;;;;;4960430;28;91529;-33
2023/01/31 04:22:19;;;;;;;14.30;5.50;;;3.40;99.90;;;;;;4961778;28;89426;-33
2023/01/31 04:24:45;;;;;;;13.73;5.85;;;3.50;99.90;;;;;;4960992;28;88274;-32
2023/01/31 04:27:10;;;;;;;9.57;4.35;;;3.50;99.90;;;;;;4961176;28;90313;-30
2023/01/31 04:29:36;;;;;;;16.40;3.85;;;3.60;99.90;;;;;;4959906;28;90721;-33
2023/01/31 04:32:02;;;;;;;17.17;4.68;;;3.60;99.90;;;;;;4960806;28;90701;-32
2023/01/31 04:34:27;;;;;;;11.13;4.38;;;3.60;99.90;;;;;;4961194;28;88753;-33
2023/01/31 04:36:53;;;;;;;16.92;4.13;;;3.70;99.90;;;;;;4960804;28;88881;-33
2023/01/31 04:39:18;;;;;;;12.32;4.13;;;3.80;99.90;;;;;;4961091;28;89518;-32
2023/01/31 04:41:44;;;;;;;19.35;5.43;;;3.80;99.90;;;;;;4961269;28;89622;-32
2023/01/31 04:44:10;;;;;;;12.82;3.72;;;3.90;99.90;;;;;;4960277;28;88564;-33
2023/01/31 04:46:36;;;;;;;15.25;5.88;;;3.90;99.90;;;;;;4960654;28;90796;-32
2023/01/31 04:49:02;;;;;;;16.48;4.72;;;3.90;99.90;;;;;;4960759;28;87874;-32
2023/01/31 04:51:28;;;;;;;19.88;6.07;;;3.90;99.90;;;;;;4960244;28;89482;-32
2023/01/31 04:53:53;;;;;;;13.32;3.97;;;3.90;99.90;;;;;;4960370;28;89759;-31
2023/01/31 04:56:19;;;;;;;16.95;5.15;;;4.00;99.90;;;;;;4960421;28;90348;-33
2023/01/31 04:58:44;;;;;;;18.00;5.05;;;4.00;99.90;;;;;;4959887;28;90099;-31
2023/01/31 05:01:10;;;;;;;16.20;5.40;;;4.00;99.90;;;;;;4961009;28;89657;-31
2023/01/31 05:03:36;;;;;;;17.40;5.70;;;4.00;99.90;;;;;;4960580;28;89358;-33
2023/01/31 05:06:01;;;;;;;15.30;6.22;;;4.00;99.90;;;;;;4960494;28;89528;-32
2023/01/31 05:08:28;;;;;;;15.93;6.38;;;4.00;99.90;;;;;;4960772;28;89333;-33
2023/01/31 05:11:01;;;;;;;15.93;5.15;;;4.10;99.90;;;;;;4960870;28;90147;-32
2023/01/31 05:13:29;;;;;;;14.60;5.10;;;4.10;99.90;;;;;;4959846;28;88370;-31
2023/01/31 05:15:56;;;;;;;12.93;4.47;;;4.20;99.90;;;;;;4960598;28;90311;-33
2023/01/31 05:18:23;;;;;;;17.73;5.97;;;4.20;99.90;;;;;;4959916;28;90152;-33
2023/01/31 05:20:49;;;;;;;24.98;6.43;;;4.30;99.90;;;;;;4960192;28;90363;-33
2023/01/31 05:23:16;;;;;;;23.67;6.82;;;4.30;99.90;;;;;;4960879;28;87981;-32
2023/01/31 05:25:42;;;;;;;16.63;4.97;;;4.40;99.90;;;;;;4959583;28;89846;-32
2023/01/31 05:28:08;;;;;;;30.42;6.53;;;4.50;99.90;;;;;;4959346;28;89536;-34
2023/01/31 05:30:33;;;;;;;20.58;7.07;;;4.50;99.90;;;;;;4960154;28;89688;-32
2023/01/31 05:32:59;;;;;;;18.65;7.60;;;4.50;99.90;;;;;;4959608;28;88668;-33
2023/01/31 05:35:25;;;;;;;24.70;7.93;;;4.60;99.90;;;;;;4960047;28;89184;-33
2023/01/31 05:37:52;;;;;;;19.10;7.00;;;4.70;99.90;;;;;;4959561;28;89820;-33
2023/01/31 05:40:18;;;;;;;15.35;5.68;;;4.70;99.90;;;;;;4959798;28;89460;-32
2023/01/31 05:42:44;;;;;;;19.88;6.05;;;4.80;99.90;;;;;;4959332;28;89721;-33
2023/01/31 05:45:10;;;;;;;23.55;7.15;;;4.90;99.90;;;;;;4959735;28;90203;-33
2023/01/31 05:47:36;;;;;;;16.63;7.05;;;4.90;99.90;;;;;;4958135;28;91095;-31
2023/01/31 05:50:03;;;;;;;27.30;8.52;;;4.90;99.90;;;;;;4959525;28;89128;-33
2023/01/31 05:52:28;;;;;;;26.05;7.03;;;5.00;99.90;;;;;;4960089;28;90439;-31
2023/01/31 05:54:54;;;;;;;22.27;7.45;;;5.00;99.90;;;;;;4959802;28;89193;-33
2023/01/31 05:57:20;;;;;;;22.48;6.90;;;5.00;99.90;;;;;;4959093;28;89391;-34
2023/01/31 05:59:46;;;;;;;18.98;7.43;;;5.00;99.90;;;;;;4959788;28;89628;-31
2023/01/31 06:02:12;;;;;;;31.40;7.90;;;5.00;99.90;;;;;;4959806;28;87674;-34
2023/01/31 06:04:38;;;;;;;24.17;7.57;;;5.10;99.90;;;;;;4959144;28;90010;-32
2023/01/31 06:07:03;;;;;;;22.23;7.25;;;5.00;99.90;;;;;;4958769;28;90414;-31
2023/01/31 06:09:29;;;;;;;20.60;6.82;;;5.00;99.90;;;;;;4960083;28;90545;-31
2023/01/31 06:11:55;;;;;;;22.70;8.50;;;5.10;99.90;;;;;;4959410;28;89500;-31
2023/01/31 06:14:20;;;;;;;20.73;7.88;;;5.10;99.90;;;;;;4959351;28;90463;-32
2023/01/31 06:16:46;;;;;;;23.13;7.50;;;5.10;99.90;;;;;;4958726;28;89502;-32
2023/01/31 06:19:12;;;;;;;19.58;9.20;;;5.20;99.90;;;;;;4959120;28;90176;-34
2023/01/31 06:21:37;;;;;;;14.13;8.60;;;5.20;99.90;;;;;;4959383;28;88723;-32
2023/01/31 06:24:03;;;;;;;24.50;9.63;;;5.20;99.90;;;;;;4959077;28;90687;-34
2023/01/31 06:26:29;;;;;;;39.40;11.18;;;5.20;99.90;;;;;;4959082;28;89012;-32
2023/01/31 06:28:54;;;;;;;20.10;8.10;;;5.20;99.90;;;;;;4940706;28;89476;-34
2023/01/31 06:31:20;;;;;;;24.13;8.73;;;5.30;99.90;;;;;;4959437;28;89231;-32
2023/01/31 06:33:46;;;;;;;24.40;10.13;;;5.30;99.90;;;;;;4958708;28;90745;-32
2023/01/31 06:36:11;;;;;;;29.48;8.55;;;5.40;99.90;;;;;;4958379;28;89678;-31
2023/01/31 06:38:37;;;;;;;23.70;10.10;;;5.30;99.90;;;;;;4946835;28;90775;-32
2023/01/31 06:41:03;;;;;;;19.63;9.05;;;5.30;99.90;;;;;;4941010;28;88815;-32
2023/01/31 06:43:28;;;;;;;24.33;10.55;;;5.30;99.90;;;;;;4952288;28;90537;-33
2023/01/31 06:45:54;;;;;;;25.17;9.57;;;5.40;99.90;;;;;;4957879;28;89622;-34
2023/01/31 06:48:19;;;;;;;30.23;10.98;;;5.40;99.90;;;;;;4959505;28;89612;-34
2023/01/31 06:50:45;;;;;;;25.00;10.60;;;5.40;99.90;;;;;;4957901;28;89599;-32
2023/01/31 06:53:11;;;;;;;25.80;11.30;;;5.60;99.90;;;;;;4958482;28;90565;-32
2023/01/31 06:55:37;;;;;;;25.63;11.95;;;5.60;99.90;;;;;;4958012;28;90291;-32
2023/01/31 06:58:03;;;;;;;32.50;10.88;;;5.60;99.90;;;;;;4958193;28;90203;-33
2023/01/31 07:00:29;;;;;;;30.13;12.68;;;5.60;99.90;;;;;;4940953;28;89025;-33
2023/01/31 07:02:55;;;;;;;27.05;12.40;;;5.60;99.90;;;;;;4957819;28;91032;-32
2023/01/31 07:05:21;;;;;;;22.90;11.23;;;5.60;99.90;;;;;;4954742;28;90274;-33
2023/01/31 07:07:48;;;;;;;26.20;11.70;;;5.60;99.90;;;;;;4958495;28;88703;-32
2023/01/31 07:10:15;;;;;;;17.98;9.10;;;5.60;99.90;;;;;;4943554;28;88456;-31
2023/01/31 07:12:41;;;;;;;28.30;11.38;;;5.60;99.90;;;;;;4962048;28;90230;-33
2023/01/31 07:15:07;;;;;;;26.23;12.38;;;5.60;99.90;;;;;;4961537;28;89428;-34
2023/01/31 07:17:33;;;;;;;30.98;13.10;;;5.60;99.90;;;;;;4961394;28;90351;-32
2023/01/31 07:19:58;;;;;;;35.90;14.05;;;5.60;99.90;;;;;;4960292;28;90376;-34
2023/01/31 07:22:24;;;;;;;24.70;11.30;;;5.60;99.90;;;;;;4962293;28;89597;-32
2023/01/31 07:24:50;;;;;;;24.08;10.43;;;5.60;99.90;;;;;;4960647;28;89731;-33
2023/01/31 07:27:16;;;;;;;21.17;10.10;;;5.60;99.90;;;;;;4961743;28;89191;-35
2023/01/31 07:29:42;;;;;;;27.30;10.73;;;5.70;99.90;;;;;;4958263;28;89505;-31
2023/01/31 07:32:09;;;;;;;20.02;10.90;;;5.70;99.90;;;;;;4942318;28;89843;-32
2023/01/31 07:34:35;;;;;;;18.02;8.25;;;5.70;99.90;;;;;;4959532;28;89421;-32
2023/01/31 07:37:00;;;;;;;25.48;10.80;;;5.80;99.90;;;;;;4960718;28;89721;-32
2023/01/31 07:39:27;;;;;;;24.52;10.27;;;5.80;99.90;;;;;;4959027;28;90717;-31
2023/01/31 07:41:52;;;;;;;21.63;10.00;;;5.70;99.90;;;;;;4959269;28;90787;-32
2023/01/31 07:44:18;;;;;;;20.23;8.95;;;5.70;99.90;;;;;;4953663;28;90653;-31
2023/01/31 07:46:43;;;;;;;21.90;8.95;;;5.80;99.90;;;;;;4959813;28;90697;-34
2023/01/31 07:49:09;;;;;;;23.13;10.23;;;5.70;99.90;;;;;;4959778;28;89182;-31
2023/01/31 07:51:37;;;;;;;26.75;9.85;;;5.70;99.90;;;;;;4958947;28;90012;-36
2023/01/31 07:54:05;;;;;;;23.33;9.83;;;5.70;99.90;;;;;;4958660;28;89736;-33
2023/01/31 07:56:31;;;;;;;23.27;9.02;;;5.70;99.90;;;;;;4939648;28;89633;-34
2023/01/31 07:58:58;;;;;;;19.85;8.30;;;5.80;99.90;;;;;;4960025;28;88461;-33
2023/01/31 08:04:12;;;;;;;21.63;7.88;;;5.90;99.90;;;;;;4948710;28;90066;-32
2023/01/31 08:06:39;;;;;;;13.10;7.13;;;5.90;99.90;;;;;;4959304;28;89557;-31
2023/01/31 08:09:04;;;;;;;24.33;9.40;;;5.90;99.90;;;;;;4959323;28;89523;-32
2023/01/31 08:11:30;;;;;;;26.23;9.90;;;5.90;99.90;;;;;;4941479;28;90467;-31
2023/01/31 08:13:56;;;;;;;16.85;7.85;;;5.90;99.90;;;;;;4958690;28;89394;-34
2023/01/31 08:16:21;;;;;;;19.38;8.02;;;6.00;99.90;;;;;;4959837;28;89399;-32
2023/01/31 08:18:48;;;;;;;21.17;9.50;;;6.00;99.90;;;;;;4959624;28;89372;-32
2023/01/31 08:21:14;;;;;;;16.48;8.57;;;5.90;99.90;;;;;;4958567;28;90040;-31
2023/01/31 08:23:40;;;;;;;21.60;8.27;;;5.90;99.90;;;;;;4960095;28;89793;-33
2023/01/31 08:26:10;;;;;;;23.85;8.77;;;6.00;99.90;;;;;;4958930;28;88536;-34
2023/01/31 08:28:37;;;;;;;19.10;7.78;;;6.10;99.90;;;;;;4959669;28;89455;-35
2023/01/31 08:31:04;;;;;;;14.25;8.00;;;6.10;99.90;;;;;;4959777;28;90190;-32
2023/01/31 08:33:29;;;;;;;17.40;8.43;;;6.00;99.90;;;;;;4960090;28;89966;-32
2023/01/31 08:35:55;;;;;;;28.52;9.90;;;6.00;99.90;;;;;;4958760;28;90626;-32
2023/01/31 08:38:20;;;;;;;17.20;8.55;;;6.00;99.90;;;;;;4960158;28;88828;-33
2023/01/31 08:40:46;;;;;;;15.55;7.78;;;6.00;99.90;;;;;;4958335;28;89989;-33
2023/01/31 08:43:12;;;;;;;16.02;7.68;;;6.10;99.90;;;;;;4959481;28;89622;-34
2023/01/31 08:45:38;;;;;;;17.25;9.27;;;6.10;99.90;;;;;;4958872;28;88976;-31
2023/01/31 08:48:04;;;;;;;18.85;9.02;;;6.00;99.90;;;;;;4959463;28;89467;-33
2023/01/31 08:50:31;;;;;;;20.23;7.85;;;6.10;99.90;;;;;;4958330;28;88747;-33
2023/01/31 08:53:03;;;;;;;20.75;9.85;;;6.10;99.90;;;;;;4958554;28;90176;-33
2023/01/31 08:55:30;;;;;;;17.27;8.85;;;6.10;99.90;;;;;;4941463;28;90669;-32
2023/01/31 08:57:56;;;;;;;30.80;10.25;;;6.10;99.90;;;;;;4958145;28;90199;-33
2023/01/31 09:00:22;;;;;;;16.05;8.05;;;6.10;99.90;;;;;;4957800;28;88793;-34
2023/01/31 09:02:52;;;;;;;17.15;8.65;;;6.10;99.90;;;;;;4959034;28;89411;-33
2023/01/31 09:05:18;;;;;;;23.08;8.70;;;6.10;99.90;;;;;;4959586;28;89937;-34
2023/01/31 09:07:43;;;;;;;18.40;8.20;;;6.10;99.90;;;;;;4958660;28;90031;-33
2023/01/31 09:10:09;;;;;;;26.08;8.38;;;6.20;99.90;;;;;;4940935;28;89949;-34
2023/01/31 09:12:35;;;;;;;32.05;9.35;;;6.30;99.90;;;;;;4958815;28;90891;-33
2023/01/31 09:15:02;;;;;;;14.55;7.72;;;6.30;99.90;;;;;;4958168;28;90196;-31
2023/01/31 09:17:28;;;;;;;18.73;8.13;;;6.30;99.90;;;;;;4958842;28;89586;-33
2023/01/31 09:19:54;;;;;;;17.17;8.15;;;6.30;99.90;;;;;;4957685;28;90183;-33
2023/01/31 09:22:21;;;;;;;14.98;7.70;;;6.40;99.90;;;;;;4956990;28;91115;-34
2023/01/31 09:24:47;;;;;;;14.55;6.65;;;6.40;99.90;;;;;;4941648;28;90511;-34
2023/01/31 09:27:12;;;;;;;15.35;6.10;;;6.40;99.90;;;;;;4940170;28;88973;-35
2023/01/31 09:29:38;;;;;;;14.02;6.97;;;6.50;99.90;;;;;;4955918;28;90191;-32
2023/01/31 09:32:04;;;;;;;16.70;7.00;;;6.50;99.90;;;;;;4957905;28;89912;-33
2023/01/31 09:34:30;;;;;;;11.57;6.18;;;6.50;99.90;;;;;;4957586;28;89405;-32
2023/01/31 09:36:56;;;;;;;17.10;7.03;;;6.50;99.90;;;;;;4958627;28;89069;-33
2023/01/31 09:39:22;;;;;;;17.02;6.95;;;6.50;99.90;;;;;;4958147;28;88314;-34
2023/01/31 09:41:56;;;;;;;14.18;6.97;;;6.60;99.90;;;;;;4957431;28;89739;-33
2023/01/31 09:44:36;;;;;;;18.45;6.32;;;6.60;99.90;;;;;;4956822;28;90809;-33
2023/01/31 09:47:21;;;;;;;11.13;6.00;;;6.70;99.90;;;;;;4958255;28;89691;-32
2023/01/31 09:52:44;;;;;;;22.05;5.32;;;6.80;99.90;;;;;;4954906;28;89754;-34
2023/01/31 09:55:16;;;;;;;18.90;6.10;;;6.80;99.90;;;;;;4958008;28;89340;-32
2023/01/31 09:58:08;;;;;;;14.23;5.65;;;6.90;99.90;;;;;;4957956;28;88358;-33
2023/01/31 10:01:15;;;;;;;14.13;5.95;;;6.90;99.90;;;;;;4958268;28;90774;-32
2023/01/31 10:04:07;;;;;;;17.13;4.90;;;6.90;99.90;;;;;;4942761;28;89343;-32
2023/01/31 10:06:47;;;;;;;14.00;5.00;;;6.90;99.90;;;;;;4956214;28;89465;-34
2023/01/31 10:09:19;;;;;;;16.75;6.25;;;6.90;99.90;;;;;;4958665;28;88741;-34
2023/01/31 10:11:56;;;;;;;12.50;5.47;;;7.00;99.90;;;;;;4957177;28;90190;-35
2023/01/31 10:14:45;;;;;;;17.97;6.47;;;7.00;99.90;;;;;;4957929;28;91197;-33
2023/01/31 10:17:14;;;;;;;15.82;5.45;;;7.00;99.90;;;;;;4957911;28;90348;-34
2023/01/31 10:19:53;;;;;;;;;;;7.10;99.90;;;;;;4958153;28;88762;-33
2023/01/31 10:22:27;;;;;;;17.27;5.78;;;7.10;99.90;;;;;;4959713;28;91060;-33
2023/01/31 10:25:25;;;;;;;12.25;5.60;;;7.10;99.90;;;;;;4958259;28;90489;-32
2023/01/31 10:27:56;;;;;;;10.35;4.82;;;7.10;99.90;;;;;;4957522;28;89456;-32
2023/01/31 10:30:25;;;;;;;14.50;5.78;;;7.20;99.90;;;;;;4958593;28;88531;-31
2023/01/31 10:32:59;;;;;;;13.05;6.72;;;7.20;99.90;;;;;;4957723;28;91503;-32
2023/01/31 10:35:29;;;;;;;13.13;6.22;;;7.10;99.90;;;;;;4957867;28;89790;-34
2023/01/31 10:38:12;;;;;;;13.13;5.75;;;7.10;99.90;;;;;;4957968;28;89354;-32
2023/01/31 10:40:43;;;;;;;20.65;7.03;;;7.10;99.90;;;;;;4956755;28;90218;-32
2023/01/31 10:43:18;;;;;;;17.05;6.32;;;7.10;99.90;;;;;;4955931;28;90030;-32
2023/01/31 10:45:44;;;;;;;17.15;5.13;;;7.20;99.90;;;;;;4956229;28;89790;-34
2023/01/31 10:48:25;;;;;;;16.48;6.00;;;7.20;99.90;;;;;;4957985;28;89119;-32
2023/01/31 10:51:12;;;;;;;13.48;6.55;;;7.20;99.90;;;;;;4954942;28;90177;-32
2023/01/31 10:54:02;;;;;;;17.33;7.65;;;7.30;99.90;;;;;;4956950;28;90691;-34
2023/01/31 10:56:43;;;;;;;27.50;7.13;;;7.30;99.90;;;;;;4957104;28;89735;-33
2023/01/31 10:59:33;;;;;;;18.45;7.28;;;7.30;99.90;;;;;;4946277;28;89569;-33
2023/01/31 11:02:01;;;;;;;20.85;7.65;;;7.20;99.90;;;;;;4957440;28;89111;-34
2023/01/31 11:04:33;;;;;;;20.10;7.33;;;7.20;99.90;;;;;;4957062;28;90249;-33
2023/01/31 11:07:01;;;;;;;20.77;7.20;;;7.20;99.90;;;;;;4956860;28;90548;-32
2023/01/31 11:09:31;;;;;;;19.65;7.47;;;7.10;99.90;;;;;;4956823;28;90734;-34
2023/01/31 11:12:03;;;;;;;19.02;6.80;;;7.10;99.90;;;;;;4957084;28;87535;-33
2023/01/31 11:14:30;;;;;;;16.55;6.05;;;7.00;99.90;;;;;;4957434;28;91256;-35
2023/01/31 11:17:04;;;;;;;23.80;5.85;;;7.00;99.90;;;;;;4956596;28;91142;-32
2023/01/31 11:19:35;;;;;;;11.15;5.95;;;7.10;99.90;;;;;;4956945;28;89199;-33
2023/01/31 11:22:02;;;;;;;18.83;7.07;;;7.00;99.90;;;;;;4955975;28;89291;-35
2023/01/31 11:24:31;;;;;;;21.85;7.45;;;7.00;99.90;;;;;;4956173;28;90372;-32
2023/01/31 11:27:02;;;;;;;16.52;7.15;;;7.00;99.90;;;;;;4955782;28;89784;-32
2023/01/31 11:29:46;;;;;;;18.23;6.63;;;7.00;99.90;;;;;;4955382;28;89046;-34
2023/01/31 11:32:19;;;;;;;19.23;6.72;;;7.00;99.90;;;;;;4955404;28;89764;-32
2023/01/31 11:34:59;;;;;;;16.25;7.13;;;7.00;99.90;;;;;;4956375;28;90809;-33
2023/01/31 11:37:26;;;;;;;18.10;6.00;;;7.00;99.90;;;;;;4955966;28;89718;-32
2023/01/31 11:40:00;;;;;;;14.50;7.10;;;7.10;99.90;;;;;;4957399;28;89136;-33
2023/01/31 11:42:26;;;;;;;17.80;6.85;;;7.10;99.90;;;;;;4955633;28;88873;-32
2023/01/31 11:45:00;;;;;;;11.27;5.75;;;7.00;99.90;;;;;;4956286;28;90339;-31
2023/01/31 11:47:47;;;;;;;14.90;5.57;;;7.00;99.90;;;;;;4956311;28;90494;-31
2023/01/31 11:50:22;;;;;;;9.75;6.32;;;7.10;99.90;;;;;;4957997;28;88035;-32
2023/01/31 11:52:55;;;;;;;17.20;5.50;;;7.10;99.90;;;;;;4976188;28;88699;-34
2023/01/31 11:55:21;;;;;;;14.73;6.80;;;7.10;99.90;;;;;;4976109;28;89872;-34
2023/01/31 11:57:57;;;;;;;15.15;6.57;;;7.10;99.90;;;;;;4979294;28;91516;-31
2023/01/31 12:00:26;;;;;;;9.95;4.57;;;7.10;99.90;;;;;;4979001;28;90332;-34
2023/01/31 12:03:06;;;;;;;15.23;6.38;;;7.10;99.90;;;;;;4979134;28;88840;-32
2023/01/31 12:05:42;;;;;;;15.80;5.40;;;7.10;99.90;;;;;;4965556;28;90262;-33
2023/01/31 12:08:26;;;;;;;13.05;6.15;;;7.00;99.90;;;;;;4978766;28;88869;-34
2023/01/31 12:10:52;;;;;;;13.23;6.18;;;7.00;99.90;;;;;;4979559;28;88636;-32
2023/01/31 12:13:19;;;;;;;13.88;6.45;;;7.00;99.90;;;;;;4978404;28;89222;-33
2023/01/31 12:15:51;;;;;;;29.17;8.00;;;7.00;99.90;;;;;;4980057;28;90017;-32
2023/01/31 12:18:38;;;;;;;20.15;7.30;;;7.00;99.90;;;;;;4978853;28;89377;-33
2023/01/31 12:21:33;;;;;;;20.58;6.47;;;7.00;99.90;;;;;;4978968;28;89576;-34
2023/01/31 12:24:02;;;;;;;14.93;5.60;;;7.10;99.90;;;;;;4978367;28;89850;-33
2023/01/31 12:26:30;;;;;;;;;;;7.10;99.90;;;;;;4979806;28;90131;-33
2023/01/31 12:29:15;;;;;;;18.13;7.80;;;7.20;99.90;;;;;;4980240;28;89954;-33
2023/01/31 12:32:07;;;;;;;16.65;4.68;;;7.20;99.90;;;;;;4967400;28;89490;-33
2023/01/31 12:34:49;;;;;;;19.27;7.35;;;7.30;99.90;;;;;;4935951;28;89579;-32
2023/01/31 12:37:27;;;;;;;23.10;7.22;;;7.30;99.90;;;;;;4979766;28;90389;-33
2023/01/31 12:39:58;;;;;;;23.27;7.05;;;7.30;99.90;;;;;;4979343;28;90598;-33
2023/01/31 12:42:45;;;;;;;17.77;6.28;;;7.30;99.90;;;;;;4978853;28;89437;-34
2023/01/31 12:45:45;;;;;;;18.00;6.07;;;7.30;99.90;;;;;;4978645;28;88556;-32
2023/01/31 12:48:19;;;;;;;16.30;6.47;;;7.40;99.90;;;;;;4976645;28;90002;-34
2023/01/31 12:50:55;;;;;;;21.48;6.65;;;7.40;99.90;;;;;;4977099;28;90486;-34
2023/01/31 12:53:27;;;;;;;16.63;6.15;;;7.40;99.90;;;;;;4978177;28;90753;-32
2023/01/31 12:56:10;;;;;;;9.32;4.70;;;7.40;99.90;;;;;;4977975;28;88878;-34
2023/01/31 12:58:50;;;;;;;12.27;5.57;;;7.50;99.90;;;;;;4978408;28;89376;-33
2023/01/31 13:01:38;;;;;;;21.70;6.80;;;7.50;99.90;;;;;;4979100;28;89995;-34
2023/01/31 13:04:19;;;;;;;7.85;5.20;;;7.50;99.90;;;;;;4966015;28;89734;-35
2023/01/31 13:06:49;;;;;;;17.75;6.05;;;7.50;99.90;;;;;;4976954;28;88960;-32
2023/01/31 13:09:24;;;;;;;19.83;5.63;;;7.50;99.90;;;;;;4978262;28;89744;-33
2023/01/31 13:12:01;;;;;;;17.80;6.60;;;7.70;99.90;;;;;;4977971;28;90188;-33
2023/01/31 13:14:31;;;;;;;20.67;5.57;;;7.60;99.90;;;;;;4978828;28;90285;-34
2023/01/31 13:17:01;;;;;;;14.25;5.57;;;7.70;99.90;;;;;;4977426;28;90182;-32